Time;durP1;ratioP1;P1;durP2;ratioP2;P2;SDS_P1;SDS_P2;PMS_P1;PMS_P2;Temp;Humidity;BMP_temperature;BMP_pressure;BME280_temperature;BME280_humidity;BME280_pressure;Samples;Min_cycle;Max_cycle;Signal;HPM_P1;HPM_P2
2023/05/05 00:01:34;;;;;;;;;;;;;;;8.50;60.71;102124.94;5029134;28;19969;-77
2023/05/05 00:04:00;;;;;;;;;;;;;;;8.43;60.47;102133.00;5031277;28;20012;-78
2023/05/05 00:06:27;;;;;;;;;;;;;;;8.36;60.98;102124.25;5021165;28;20022;-76
2023/05/05 00:08:53;;;;;;;;;;;;;;;8.27;60.86;102117.56;5028037;28;19991;-78
2023/05/05 00:11:18;;;;;;;;;;;;;;;8.31;60.94;102129.41;5021353;28;19940;-77
2023/05/05 00:13:44;;;;;;;;;;;;;;;8.14;61.52;102128.34;5027732;28;19995;-78
2023/05/05 00:16:09;;;;;;;;;;;;;;;8.07;62.09;102123.06;5032242;28;20303;-78
2023/05/05 00:18:35;;;;;;;;;;;;;;;8.08;61.59;102124.69;5035876;28;19963;-77
2023/05/05 00:21:00;;;;;;;;;;;;;;;8.02;61.95;102119.41;5028488;28;20011;-78
2023/05/05 00:23:26;;;;;;;;;;;;;;;8.03;61.69;102121.06;5020514;28;20464;-78
2023/05/05 00:25:51;;;;;;;;;;;;;;;7.99;62.05;102122.50;5028399;28;19967;-78
2023/05/05 00:28:16;;;;;;;;;;;;;;;7.93;62.17;102122.38;5028093;28;19982;-77
2023/05/05 00:30:42;;;;;;;;;;;;;;;8.05;61.75;102118.97;5026506;28;19967;-77
2023/05/05 00:33:08;;;;;;;;;;;;;;;7.97;61.63;102119.25;5029870;28;19934;-80
2023/05/05 00:35:34;;;;;;;;;;;;;;;7.99;61.77;102122.50;5026569;28;19936;-77
2023/05/05 00:38:00;;;;;;;;;;;;;;;7.93;62.52;102116.22;5012049;28;19967;-79
2023/05/05 00:40:27;;;;;;;;;;;;;;;7.89;62.49;102105.16;5028300;28;19951;-78
2023/05/05 00:42:52;;;;;;;;;;;;;;;7.68;63.33;102108.22;5032529;28;20307;-78
2023/05/05 00:45:18;;;;;;;;;;;;;;;7.74;63.32;102101.19;5033205;28;19936;-78
2023/05/05 00:47:48;;;;;;;;;;;;;;;7.83;62.32;102102.53;5042262;28;19945;-77
2023/05/05 00:50:20;;;;;;;;;;;;;;;7.81;62.29;102102.75;5031236;28;19930;-77
2023/05/05 00:52:45;;;;;;;;;;;;;;;7.75;62.86;102098.31;5026146;28;19938;-78
2023/05/05 00:55:11;;;;;;;;;;;;;;;7.73;62.73;102100.38;5030526;28;19948;-78
2023/05/05 00:57:37;;;;;;;;;;;;;;;7.81;62.61;102108.09;5028798;28;19944;-78
2023/05/05 01:00:03;;;;;;;;;;;;;;;7.72;63.09;102097.91;5042832;28;20668;-78
2023/05/05 01:02:30;;;;;;;;;;;;;;;7.60;63.41;102087.97;5028726;28;19954;-77
2023/05/05 01:04:55;;;;;;;;;;;;;;;7.60;63.45;102100.47;5027089;28;19928;-78
2023/05/05 01:07:28;;;;;;;;;;;;;;;7.64;62.85;102093.66;5033812;28;20054;-78
2023/05/05 01:10:03;;;;;;;;;;;;;;;7.81;62.50;102089.44;5027223;28;20035;-79
2023/05/05 01:12:48;;;;;;;;;;;;;;;7.63;64.15;102084.03;5030163;28;20022;-77
2023/05/05 01:15:29;;;;;;;;;;;;;;;7.57;63.68;102090.22;5022463;28;20186;-77
2023/05/05 01:18:04;;;;;;;;;;;;;;;7.66;63.15;102080.94;5025333;28;19948;-77
2023/05/05 01:20:39;;;;;;;;;;;;;;;7.65;63.04;102082.81;5041828;28;19963;-76
2023/05/05 01:23:06;;;;;;;;;;;;;;;7.48;63.80;102081.69;5015996;28;20319;-78
2023/05/05 01:25:50;;;;;;;;;;;;;;;7.52;64.09;102082.06;5016781;28;19986;-77
2023/05/05 01:28:34;;;;;;;;;;;;;;;7.49;63.73;102087.84;5045423;28;19973;-78
2023/05/05 01:31:06;;;;;;;;;;;;;;;7.50;64.19;102084.13;5047360;28;19944;-78
2023/05/05 01:33:35;;;;;;;;;;;;;;;7.22;65.52;102077.34;5035039;28;19937;-77
2023/05/05 01:36:09;;;;;;;;;;;;;;;7.28;65.58;102081.81;5047217;28;20354;-78
2023/05/05 01:38:39;;;;;;;;;;;;;;;7.28;65.14;102081.00;5034656;28;20022;-79
2023/05/05 01:41:13;;;;;;;;;;;;;;;7.15;66.20;102086.41;5031498;28;19965;-78
2023/05/05 01:43:40;;;;;;;;;;;;;;;7.25;65.64;102082.25;5029555;28;20022;-77
2023/05/05 01:46:07;;;;;;;;;;;;;;;7.34;65.08;102085.47;5031484;28;20390;-78
2023/05/05 01:48:32;;;;;;;;;;;;;;;7.33;65.24;102089.19;5034500;28;20095;-77
2023/05/05 01:51:01;;;;;;;;;;;;;;;7.32;65.04;102080.38;5031439;28;19955;-80
2023/05/05 01:53:28;;;;;;;;;;;;;;;7.16;66.44;102072.88;5032016;28;19971;-78
2023/05/05 01:55:55;;;;;;;;;;;;;;;7.05;66.70;102068.25;5034086;28;19929;-78
2023/05/05 01:58:22;;;;;;;;;;;;;;;6.99;67.08;102069.91;5046004;28;19949;-78
2023/05/05 02:00:48;;;;;;;;;;;;;;;6.97;66.96;102061.28;5013171;28;20313;-80
2023/05/05 02:03:14;;;;;;;;;;;;;;;7.19;65.81;102063.66;5039704;28;19956;-79
2023/05/05 02:05:42;;;;;;;;;;;;;;;7.20;66.19;102066.09;5021435;28;19949;-78
2023/05/05 02:08:08;;;;;;;;;;;;;;;7.13;66.46;102067.97;5029266;28;19995;-79
2023/05/05 02:10:36;;;;;;;;;;;;;;;7.02;67.08;102056.16;5005984;28;19932;-78
2023/05/05 02:13:02;;;;;;;;;;;;;;;6.96;67.24;102061.50;5021559;28;20463;-78
2023/05/05 02:15:29;;;;;;;;;;;;;;;7.13;66.48;102057.31;5002246;28;19938;-77
2023/05/05 02:17:55;;;;;;;;;;;;;;;6.94;67.79;102056.41;5030159;28;20012;-77
2023/05/05 02:20:21;;;;;;;;;;;;;;;6.93;67.51;102052.13;5027843;28;20042;-79
2023/05/05 02:22:47;;;;;;;;;;;;;;;6.79;68.41;102051.38;5026592;28;20381;-78
2023/05/05 02:25:12;;;;;;;;;;;;;;;6.82;68.06;102058.91;5027922;28;20028;-78
2023/05/05 02:27:40;;;;;;;;;;;;;;;6.87;67.71;102052.16;5029710;28;20034;-78
2023/05/05 02:30:07;;;;;;;;;;;;;;;6.79;68.79;102051.38;5022036;28;19941;-78
2023/05/05 02:32:34;;;;;;;;;;;;;;;6.80;68.22;102045.00;5029599;28;19956;-77
2023/05/05 02:35:07;;;;;;;;;;;;;;;6.73;68.60;102046.88;5022620;28;20027;-78
2023/05/05 02:37:37;;;;;;;;;;;;;;;6.68;69.27;102051.19;5028604;28;20038;-79
2023/05/05 02:40:04;;;;;;;;;;;;;;;6.72;69.01;102039.13;5025802;28;20416;-78
2023/05/05 02:42:34;;;;;;;;;;;;;;;6.58;69.82;102038.34;5040392;28;19943;-78
2023/05/05 02:45:03;;;;;;;;;;;;;;;6.57;69.81;102039.38;5042460;28;19942;-77
2023/05/05 02:47:36;;;;;;;;;;;;;;;6.68;68.96;102044.03;5025836;28;19956;-79
2023/05/05 02:50:04;;;;;;;;;;;;;;;6.46;70.46;102037.38;5045520;28;19937;-77
2023/05/05 02:52:31;;;;;;;;;;;;;;;6.27;71.20;102031.91;5026021;28;19934;-79
2023/05/05 02:54:57;;;;;;;;;;;;;;;6.27;71.24;102034.56;5030214;28;19939;-78
2023/05/05 02:57:26;;;;;;;;;;;;;;;6.26;71.14;102032.94;5026968;28;20449;-79
2023/05/05 03:00:02;;;;;;;;;;;;;;;6.38;70.87;102019.00;5031863;28;20444;-79
2023/05/05 03:02:48;;;;;;;;;;;;;;;6.40;70.57;102014.25;5040686;28;19945;-77
2023/05/05 03:05:20;;;;;;;;;;;;;;;6.28;71.47;102011.44;5014390;28;19941;-77
2023/05/05 03:07:55;;;;;;;;;;;;;;;6.31;71.34;102020.84;5024189;28;20047;-80
2023/05/05 03:10:26;;;;;;;;;;;;;;;6.34;71.40;102020.44;5002920;28;19996;-77
2023/05/05 03:12:53;;;;;;;;;;;;;;;6.33;71.33;102024.13;5034364;28;20034;-78
2023/05/05 03:15:28;;;;;;;;;;;;;;;6.32;72.18;102023.31;5024788;28;19949;-78
2023/05/05 03:17:55;;;;;;;;;;;;;;;6.25;71.55;102020.66;5022239;28;20693;-75
2023/05/05 03:20:21;;;;;;;;;;;;;;;6.37;71.49;102020.00;5007337;28;19951;-79
2023/05/05 03:22:49;;;;;;;;;;;;;;;6.39;70.98;102016.09;5025704;28;20471;-78
2023/05/05 03:25:15;;;;;;;;;;;;;;;6.32;72.29;102017.16;5015485;28;20009;-79
2023/05/05 03:27:41;;;;;;;;;;;;;;;6.44;71.28;102010.97;5033668;28;19948;-80
2023/05/05 03:30:08;;;;;;;;;;;;;;;6.50;71.14;102006.63;5032242;28;19973;-78
2023/05/05 03:32:37;;;;;;;;;;;;;;;6.55;71.05;102001.50;5046248;28;20450;-77
2023/05/05 03:35:03;;;;;;;;;;;;;;;6.45;71.75;101999.31;5029528;28;20095;-78
2023/05/05 03:37:31;;;;;;;;;;;;;;;6.56;71.39;101997.81;5032964;28;19947;-76
2023/05/05 03:39:57;;;;;;;;;;;;;;;6.55;71.88;101993.50;5031379;28;19959;-78
2023/05/05 03:42:23;;;;;;;;;;;;;;;6.71;70.74;102001.03;5033494;28;20303;-78
2023/05/05 03:44:51;;;;;;;;;;;;;;;6.61;71.83;101995.34;5026224;28;19936;-77
2023/05/05 03:47:16;;;;;;;;;;;;;;;6.58;71.85;101995.78;5032501;28;19955;-78
2023/05/05 03:49:43;;;;;;;;;;;;;;;6.71;71.43;101997.56;5030776;28;19940;-76
2023/05/05 03:52:08;;;;;;;;;;;;;;;6.75;71.12;102002.22;5030549;28;19934;-77
2023/05/05 03:54:34;;;;;;;;;;;;;;;6.81;71.04;102000.56;5049176;28;19936;-78
2023/05/05 03:57:00;;;;;;;;;;;;;;;6.83;71.22;101999.28;5028961;28;19938;-76
2023/05/05 03:59:26;;;;;;;;;;;;;;;6.92;71.10;102007.06;5027314;28;19939;-80
2023/05/05 04:01:52;;;;;;;;;;;;;;;6.90;71.12;101998.44;5022565;28;19938;-77
2023/05/05 04:04:17;;;;;;;;;;;;;;;6.93;71.38;102006.03;5024858;28;20649;-76
2023/05/05 04:06:43;;;;;;;;;;;;;;;6.94;71.72;102005.00;5028465;28;19938;-77
2023/05/05 04:09:08;;;;;;;;;;;;;;;6.95;71.08;102006.63;5029520;28;20052;-75
2023/05/05 04:11:36;;;;;;;;;;;;;;;7.02;70.79;102002.06;5009119;28;19938;-77
2023/05/05 04:14:02;;;;;;;;;;;;;;;7.05;71.20;101986.47;5031417;28;19943;-79
2023/05/05 04:16:29;;;;;;;;;;;;;;;7.07;71.57;101991.59;5009212;28;20041;-77
2023/05/05 04:18:57;;;;;;;;;;;;;;;7.12;71.33;101999.75;5029234;28;20360;-78
2023/05/05 04:21:22;;;;;;;;;;;;;;;7.02;71.62;101992.22;5026430;28;19975;-77
2023/05/05 04:23:48;;;;;;;;;;;;;;;7.04;71.55;101997.31;5026536;28;19931;-79
2023/05/05 04:26:14;;;;;;;;;;;;;;;7.06;71.77;101993.44;5030117;28;19947;-78
2023/05/05 04:28:40;;;;;;;;;;;;;;;7.10;71.70;102005.28;5038075;28;19947;-81
2023/05/05 04:31:06;;;;;;;;;;;;;;;7.04;72.00;101995.47;5031547;28;20426;-80
2023/05/05 04:33:35;;;;;;;;;;;;;;;7.08;71.85;102001.19;5015312;28;19937;-79
2023/05/05 04:36:01;;;;;;;;;;;;;;;7.13;72.28;102008.56;5024554;28;19937;-78
2023/05/05 04:38:27;;;;;;;;;;;;;;;7.18;71.96;102000.72;5030070;28;19955;-79
2023/05/05 04:40:52;;;;;;;;;;;;;;;7.16;72.33;101994.78;5025418;28;20060;-80
2023/05/05 04:43:19;;;;;;;;;;;;;;;7.14;72.81;102000.34;5024351;28;19982;-77
2023/05/05 04:45:51;;;;;;;;;;;;;;;7.14;73.32;101999.53;5027552;28;19940;-79
2023/05/05 04:48:19;;;;;;;;;;;;;;;7.17;72.83;101997.22;5006776;28;19954;-79
2023/05/05 04:50:45;;;;;;;;;;;;;;;7.15;74.07;101999.31;5027803;28;19967;-78
2023/05/05 04:53:11;;;;;;;;;;;;;;;7.22;73.47;102007.25;5025763;28;19930;-78
2023/05/05 04:55:38;;;;;;;;;;;;;;;7.24;73.83;102006.00;5030771;28;20006;-79
2023/05/05 04:58:03;;;;;;;;;;;;;;;7.30;73.86;102004.31;5028659;28;20703;-78
2023/05/05 05:00:29;;;;;;;;;;;;;;;7.47;73.16;102010.75;5036433;28;19956;-78
2023/05/05 05:02:55;;;;;;;;;;;;;;;7.51;72.59;102009.25;5043942;28;19993;-78
2023/05/05 05:05:21;;;;;;;;;;;;;;;7.68;72.25;102014.88;5031821;28;20474;-77
2023/05/05 05:07:47;;;;;;;;;;;;;;;7.78;71.96;102006.38;5031932;28;19948;-77
2023/05/05 05:10:12;;;;;;;;;;;;;;;7.93;72.14;102007.66;5032040;28;20035;-78
2023/05/05 05:12:38;;;;;;;;;;;;;;;7.99;71.59;101994.47;5030609;28;20286;-79
2023/05/05 05:15:03;;;;;;;;;;;;;;;8.02;71.66;101986.84;5034548;28;19954;-78
2023/05/05 05:17:29;;;;;;;;;;;;;;;8.09;72.00;101992.09;5033095;28;19951;-78
2023/05/05 05:19:58;;;;;;;;;;;;;;;8.08;71.60;102001.97;5026985;28;20297;-79
2023/05/05 05:22:23;;;;;;;;;;;;;;;8.18;71.10;102001.44;5027330;28;19937;-79
2023/05/05 05:24:49;;;;;;;;;;;;;;;8.27;71.45;101994.78;5027869;28;19980;-78
2023/05/05 05:27:15;;;;;;;;;;;;;;;8.40;70.97;102005.34;5028142;28;20598;-79
2023/05/05 05:29:43;;;;;;;;;;;;;;;8.52;70.79;101988.53;5033582;28;20321;-78
2023/05/05 05:32:09;;;;;;;;;;;;;;;8.59;70.60;101984.72;5043024;28;20510;-79
2023/05/05 05:34:35;;;;;;;;;;;;;;;8.64;69.98;101997.41;5023338;28;20325;-76
2023/05/05 05:37:02;;;;;;;;;;;;;;;8.51;70.61;101994.91;5021649;28;19943;-77
2023/05/05 05:39:28;;;;;;;;;;;;;;;8.43;71.14;101994.19;5038248;28;19939;-78
2023/05/05 05:41:54;;;;;;;;;;;;;;;8.57;70.68;102007.38;5022824;28;20030;-78
2023/05/05 05:44:20;;;;;;;;;;;;;;;8.60;70.22;102010.41;5019288;28;19936;-77
2023/05/05 05:46:46;;;;;;;;;;;;;;;8.76;70.67;102011.63;5023913;28;19936;-78
2023/05/05 05:49:12;;;;;;;;;;;;;;;8.91;69.38;102020.06;5032322;28;19943;-78
2023/05/05 05:51:38;;;;;;;;;;;;;;;9.07;68.68;102015.09;5024235;28;19938;-77
2023/05/05 05:54:03;;;;;;;;;;;;;;;9.24;68.06;102016.09;5027669;28;19941;-77
2023/05/05 05:56:29;;;;;;;;;;;;;;;9.25;68.37;102007.00;5027004;28;19937;-77
2023/05/05 05:58:55;;;;;;;;;;;;;;;9.41;67.89;102022.38;5024620;28;19979;-78
2023/05/05 06:01:22;;;;;;;;;;;;;;;9.52;67.07;102002.88;5041316;28;19963;-77
2023/05/05 06:03:48;;;;;;;;;;;;;;;9.72;67.04;102001.72;5040684;28;20029;-78
2023/05/05 06:06:14;;;;;;;;;;;;;;;9.87;66.46;101986.00;5011178;28;19939;-79
2023/05/05 06:08:40;;;;;;;;;;;;;;;9.93;65.91;101998.44;5029549;28;19959;-77
2023/05/05 06:11:06;;;;;;;;;;;;;;;10.03;65.62;101993.31;5026986;28;20406;-76
2023/05/05 06:13:31;;;;;;;;;;;;;;;10.22;64.97;101993.16;5028796;28;19936;-76
2023/05/05 06:15:57;;;;;;;;;;;;;;;10.52;64.22;101999.16;5046388;28;19952;-78
2023/05/05 06:18:23;;;;;;;;;;;;;;;10.78;63.27;101999.66;5028638;28;19986;-80
2023/05/05 06:20:49;;;;;;;;;;;;;;;11.10;63.05;101989.19;5027131;28;19960;-77
2023/05/05 06:23:15;;;;;;;;;;;;;;;10.46;63.58;101981.34;5027073;28;19976;-78
2023/05/05 06:25:46;;;;;;;;;;;;;;;9.97;65.52;101978.19;5027086;28;20419;-76
2023/05/05 06:28:12;;;;;;;;;;;;;;;9.85;65.98;101985.41;5024801;28;20825;-78
2023/05/05 06:30:37;;;;;;;;;;;;;;;10.19;64.77;101981.06;5027680;28;19964;-78
2023/05/05 06:33:03;;;;;;;;;;;;;;;10.39;64.16;101980.69;5025905;28;19941;-77
2023/05/05 06:35:29;;;;;;;;;;;;;;;10.72;63.71;101985.34;5030693;28;19943;-78
2023/05/05 06:37:54;;;;;;;;;;;;;;;11.01;63.46;101983.44;5032969;28;20438;-78
2023/05/05 06:40:20;;;;;;;;;;;;;;;10.94;62.22;101978.22;5031444;28;20505;-79
2023/05/05 06:42:45;;;;;;;;;;;;;;;11.00;62.90;101981.00;5027204;28;20774;-79
2023/05/05 06:45:16;;;;;;;;;;;;;;;11.01;62.00;101983.44;5028006;28;19941;-80
2023/05/05 06:47:42;;;;;;;;;;;;;;;11.02;62.16;101971.66;5020223;28;19948;-80
2023/05/05 06:50:08;;;;;;;;;;;;;;;11.08;62.17;101968.00;5011786;28;19935;-79
2023/05/05 06:52:34;;;;;;;;;;;;;;;11.12;61.63;101979.88;5031174;28;19935;-78
2023/05/05 06:55:00;;;;;;;;;;;;;;;11.46;60.95;101975.31;5034966;28;19950;-78
2023/05/05 06:57:25;;;;;;;;;;;;;;;11.59;60.68;101990.28;5029897;28;19995;-79
2023/05/05 06:59:52;;;;;;;;;;;;;;;11.53;60.57;101996.63;5029747;28;20486;-77
2023/05/05 07:02:18;;;;;;;;;;;;;;;11.51;60.21;101982.63;5025157;28;19928;-79
2023/05/05 07:04:43;;;;;;;;;;;;;;;11.46;61.28;101977.19;5031266;28;19944;-79
2023/05/05 07:07:09;;;;;;;;;;;;;;;11.67;60.08;101967.56;5044148;28;19957;-80
2023/05/05 07:09:34;;;;;;;;;;;;;;;11.93;59.56;101963.41;5027075;28;20086;-80
2023/05/05 07:12:00;;;;;;;;;;;;;;;12.18;59.37;101952.94;5009997;28;19933;-79
2023/05/05 07:14:26;;;;;;;;;;;;;;;12.13;59.54;101968.22;5032859;28;19935;-79
2023/05/05 07:16:51;;;;;;;;;;;;;;;12.05;59.71;101960.56;5009465;28;20030;-79
2023/05/05 07:19:17;;;;;;;;;;;;;;;11.99;59.88;101979.31;5027786;28;19936;-78
2023/05/05 07:21:42;;;;;;;;;;;;;;;12.38;59.75;101994.56;5029617;28;20380;-81
2023/05/05 07:24:08;;;;;;;;;;;;;;;12.55;58.91;102001.47;5010474;28;19937;-80
2023/05/05 07:26:34;;;;;;;;;;;;;;;12.80;58.55;102000.94;5048456;28;19931;-77
2023/05/05 07:29:00;;;;;;;;;;;;;;;12.81;57.54;101997.19;5010794;28;19956;-79
2023/05/05 07:31:26;;;;;;;;;;;;;;;12.70;58.02;101994.66;5025553;28;19930;-80
2023/05/05 07:33:51;;;;;;;;;;;;;;;12.82;58.02;102000.69;5029999;28;20334;-78
2023/05/05 07:36:17;;;;;;;;;;;;;;;12.63;57.38;102005.59;5024266;28;19940;-79
2023/05/05 07:38:43;;;;;;;;;;;;;;;12.69;57.83;102015.34;5028015;28;20434;-78
2023/05/05 07:41:10;;;;;;;;;;;;;;;12.88;57.65;102023.88;5028275;28;19953;-80
2023/05/05 07:43:36;;;;;;;;;;;;;;;12.84;57.12;102028.94;5040491;28;19933;-78
2023/05/05 07:46:02;;;;;;;;;;;;;;;12.82;56.99;102030.25;5029919;28;20334;-78
2023/05/05 07:48:28;;;;;;;;;;;;;;;12.83;57.35;102019.25;5024846;28;19961;-81
2023/05/05 07:50:54;;;;;;;;;;;;;;;12.81;57.37;102032.13;5025414;28;19935;-79
2023/05/05 07:53:20;;;;;;;;;;;;;;;12.64;57.39;102023.34;5030626;28;20394;-78
2023/05/05 07:55:45;;;;;;;;;;;;;;;12.67;57.55;102032.78;5024204;28;19932;-79
2023/05/05 07:58:10;;;;;;;;;;;;;;;12.55;57.67;102036.41;5030462;28;19955;-78
2023/05/05 08:00:36;;;;;;;;;;;;;;;12.61;57.58;102037.28;5044113;28;20093;-78
2023/05/05 08:03:02;;;;;;;;;;;;;;;12.50;58.23;102035.53;5026710;28;20033;-78
2023/05/05 08:05:28;;;;;;;;;;;;;;;12.46;57.93;102032.56;5023686;28;19978;-79
2023/05/05 08:07:53;;;;;;;;;;;;;;;12.69;58.06;102033.34;5012515;28;20581;-77
2023/05/05 08:10:21;;;;;;;;;;;;;;;12.78;57.18;102043.38;5049641;28;20412;-81
2023/05/05 08:12:46;;;;;;;;;;;;;;;12.73;57.43;102040.63;5035536;28;20032;-77
2023/05/05 08:15:12;;;;;;;;;;;;;;;12.89;57.31;102052.38;5032524;28;19977;-80
2023/05/05 08:17:47;;;;;;;;;;;;;;;13.00;56.80;102048.72;5015554;28;20017;-80
2023/05/05 08:20:13;;;;;;;;;;;;;;;12.93;56.81;102036.53;5046308;28;19982;-79
2023/05/05 08:22:40;;;;;;;;;;;;;;;12.91;56.93;102044.84;5032509;28;20009;-77
2023/05/05 08:25:06;;;;;;;;;;;;;;;13.11;56.65;102046.94;5031275;28;20421;-78
2023/05/05 08:27:34;;;;;;;;;;;;;;;13.14;56.53;102043.75;5034066;28;20014;-78
2023/05/05 08:30:00;;;;;;;;;;;;;;;13.74;55.60;102037.25;5030884;28;20050;-82
2023/05/05 08:32:26;;;;;;;;;;;;;;;14.16;55.96;102025.66;5032708;28;19932;-78
2023/05/05 08:34:51;;;;;;;;;;;;;;;14.20;54.28;102024.06;5030810;28;19946;-78
2023/05/05 08:37:17;;;;;;;;;;;;;;;14.97;53.57;102025.94;5034746;28;19952;-77
2023/05/05 08:39:45;;;;;;;;;;;;;;;15.46;52.39;102017.31;5012307;28;21518;-80
2023/05/05 08:42:10;;;;;;;;;;;;;;;15.59;51.75;102029.47;5033442;28;20019;-80
2023/05/05 08:44:38;;;;;;;;;;;;;;;15.40;51.07;102020.31;5028493;28;19940;-79
2023/05/05 08:47:04;;;;;;;;;;;;;;;15.02;51.73;102023.25;5017962;28;19932;-79
2023/05/05 08:49:30;;;;;;;;;;;;;;;14.69;52.30;102012.94;5032079;28;20106;-80
2023/05/05 08:51:59;;;;;;;;;;;;;;;14.87;52.11;102003.53;5013062;28;19936;-78
2023/05/05 08:54:26;;;;;;;;;;;;;;;14.43;52.98;101993.97;5031691;28;20031;-80
2023/05/05 08:56:52;;;;;;;;;;;;;;;14.89;52.55;101988.69;5024235;28;20433;-77
2023/05/05 08:59:18;;;;;;;;;;;;;;;14.72;51.72;101988.16;5033263;28;19986;-77
2023/05/05 09:01:44;;;;;;;;;;;;;;;15.12;52.04;101978.47;5033592;28;19987;-79
2023/05/05 09:04:10;;;;;;;;;;;;;;;15.60;50.15;101977.06;5030326;28;20021;-77
2023/05/05 09:06:36;;;;;;;;;;;;;;;15.17;50.63;101979.28;5042855;28;19936;-77
2023/05/05 09:09:02;;;;;;;;;;;;;;;15.08;50.57;101985.47;5021522;28;19952;-78
2023/05/05 09:11:27;;;;;;;;;;;;;;;15.19;50.80;101977.13;5033860;28;20044;-78
2023/05/05 09:13:53;;;;;;;;;;;;;;;15.29;50.42;101971.72;5031490;28;19944;-79
2023/05/05 09:16:19;;;;;;;;;;;;;;;15.41;49.75;101960.63;5034080;28;19933;-78
2023/05/05 09:18:44;;;;;;;;;;;;;;;15.83;49.79;101965.69;5037710;28;19952;-79
2023/05/05 09:21:25;;;;;;;;;;;;;;;15.66;49.18;101980.63;5031923;28;20414;-80
2023/05/05 09:24:03;;;;;;;;;;;;;;;16.10;50.25;101970.72;5048157;28;19941;-79
2023/05/05 09:26:31;;;;;;;;;;;;;;;15.35;49.39;101969.00;5032929;28;19937;-78
2023/05/05 09:28:57;;;;;;;;;;;;;;;15.34;50.30;101973.59;5040958;28;19947;-80
2023/05/05 09:31:22;;;;;;;;;;;;;;;15.13;50.47;101972.00;5030820;28;19937;-79
2023/05/05 09:33:47;;;;;;;;;;;;;;;15.44;49.81;101976.28;5029489;28;19998;-79
2023/05/05 09:36:13;;;;;;;;;;;;;;;15.46;49.24;101976.03;5035351;28;19942;-78
2023/05/05 09:38:38;;;;;;;;;;;;;;;15.29;49.19;101971.72;5032397;28;20018;-78
2023/05/05 09:41:05;;;;;;;;;;;;;;;15.28;50.06;101964.69;5026534;28;19948;-77
2023/05/05 09:43:47;;;;;;;;;;;;;;;14.94;49.96;101963.63;5012403;28;19945;-77
2023/05/05 09:46:13;;;;;;;;;;;;;;;14.98;49.76;101962.81;5022260;28;19942;-78
2023/05/05 09:48:38;;;;;;;;;;;;;;;15.09;50.53;101976.31;5028971;28;19972;-78
2023/05/05 09:51:03;;;;;;;;;;;;;;;14.83;50.73;101954.69;5022718;28;20328;-78
2023/05/05 09:53:37;;;;;;;;;;;;;;;14.90;50.69;101963.38;5032314;28;19974;-77
2023/05/05 09:56:03;;;;;;;;;;;;;;;14.88;50.81;101962.81;5026015;28;19995;-81
2023/05/05 09:58:29;;;;;;;;;;;;;;;15.07;50.08;101948.78;5025075;28;19946;-76
2023/05/05 10:00:55;;;;;;;;;;;;;;;15.16;51.83;101955.25;5031499;28;20046;-78
2023/05/05 10:03:21;;;;;;;;;;;;;;;15.16;49.88;101941.75;5022827;28;19961;-77
2023/05/05 10:05:51;;;;;;;;;;;;;;;15.21;49.40;101941.75;5023337;28;19935;-78
2023/05/05 10:08:18;;;;;;;;;;;;;;;15.91;48.12;101915.69;5032462;28;19947;-77
2023/05/05 10:10:54;;;;;;;;;;;;;;;16.38;47.71;101933.28;5026084;28;20000;-79
2023/05/05 10:13:20;;;;;;;;;;;;;;;16.73;46.76;101928.75;5025858;28;19953;-79
2023/05/05 10:15:47;;;;;;;;;;;;;;;16.86;45.96;101922.72;5036120;28;19931;-78
2023/05/05 10:18:13;;;;;;;;;;;;;;;16.73;45.97;101928.75;5035762;28;19978;-78
2023/05/05 10:20:42;;;;;;;;;;;;;;;16.54;45.76;101926.72;5045944;28;19960;-78
2023/05/05 10:23:11;;;;;;;;;;;;;;;16.22;47.21;101929.06;5031096;28;19940;-77
2023/05/05 10:25:41;;;;;;;;;;;;;;;16.36;46.77;101924.66;5054203;28;20019;-79
2023/05/05 10:28:08;;;;;;;;;;;;;;;16.19;46.80;101935.84;5031012;28;19954;-80
2023/05/05 10:30:37;;;;;;;;;;;;;;;16.63;47.31;101943.16;5024371;28;19988;-78
2023/05/05 10:33:06;;;;;;;;;;;;;;;17.08;46.25;101935.81;5031326;28;19939;-79
2023/05/05 10:35:35;;;;;;;;;;;;;;;17.82;46.39;101929.09;5030036;28;19934;-77
2023/05/05 10:38:02;;;;;;;;;;;;;;;17.69;45.67;101922.44;5028928;28;19952;-80
2023/05/05 10:40:28;;;;;;;;;;;;;;;17.81;44.63;101922.06;5030246;28;20038;-78
2023/05/05 10:42:54;;;;;;;;;;;;;;;17.93;42.96;101927.88;5027488;28;19933;-78
2023/05/05 10:45:19;;;;;;;;;;;;;;;17.56;43.45;101928.56;5041924;28;20035;-77
2023/05/05 10:47:45;;;;;;;;;;;;;;;16.77;45.29;101935.22;5032339;28;19979;-76
2023/05/05 10:50:29;;;;;;;;;;;;;;;16.78;45.55;101944.97;5027419;28;19927;-78
2023/05/05 10:52:58;;;;;;;;;;;;;;;16.98;45.52;101944.00;5038511;28;20405;-78
2023/05/05 10:55:30;;;;;;;;;;;;;;;16.97;44.36;101956.72;5034858;28;19965;-78
2023/05/05 10:57:56;;;;;;;;;;;;;;;17.33;44.32;101949.09;5046639;28;20432;-80
2023/05/05 11:00:37;;;;;;;;;;;;;;;17.65;44.03;101951.19;5032568;28;19964;-79
2023/05/05 11:03:29;;;;;;;;;;;;;;;17.60;44.36;101948.53;5019169;28;19949;-79
2023/05/05 11:06:06;;;;;;;;;;;;;;;17.78;43.11;101938.09;5024998;28;20571;-79
2023/05/05 11:08:32;;;;;;;;;;;;;;;17.60;44.69;101932.28;5027085;28;19949;-79
2023/05/05 11:10:58;;;;;;;;;;;;;;;17.22;44.52;101930.53;5024047;28;19940;-78
2023/05/05 11:13:24;;;;;;;;;;;;;;;16.98;46.08;101935.88;5027877;28;20393;-78
2023/05/05 11:15:50;;;;;;;;;;;;;;;16.57;45.51;101925.34;5025762;28;20034;-79
2023/05/05 11:18:35;;;;;;;;;;;;;;;16.47;45.95;101925.41;5019017;28;19964;-79
2023/05/05 11:21:01;;;;;;;;;;;;;;;16.16;45.74;101922.06;5026091;28;20350;-77
2023/05/05 11:23:27;;;;;;;;;;;;;;;16.18;46.68;101923.41;5030860;28;19939;-78
2023/05/05 11:25:53;;;;;;;;;;;;;;;16.08;46.48;101918.06;5033264;28;19944;-76
2023/05/05 11:28:42;;;;;;;;;;;;;;;16.32;46.57;101907.38;5025780;28;19962;-77
2023/05/05 11:31:10;;;;;;;;;;;;;;;16.33;46.51;101906.31;5014523;28;19940;-78
2023/05/05 11:33:37;;;;;;;;;;;;;;;16.30;47.51;101896.03;5039443;28;19957;-77
2023/05/05 11:36:04;;;;;;;;;;;;;;;16.23;47.05;101896.34;5028121;28;20512;-80
2023/05/05 11:38:41;;;;;;;;;;;;;;;16.30;46.98;101893.34;5028013;28;20319;-78
2023/05/05 11:41:23;;;;;;;;;;;;;;;16.13;46.65;101898.31;5019063;28;20380;-79
2023/05/05 11:43:49;;;;;;;;;;;;;;;16.28;46.68;101903.63;5044295;28;19944;-77
2023/05/05 11:46:18;;;;;;;;;;;;;;;16.33;46.61;101906.31;5032046;28;19937;-78
2023/05/05 11:48:45;;;;;;;;;;;;;;;16.48;46.06;101910.81;5032902;28;19972;-79
2023/05/05 11:51:12;;;;;;;;;;;;;;;16.47;46.21;101901.09;5031982;28;19939;-78
2023/05/05 11:53:40;;;;;;;;;;;;;;;16.53;46.24;101895.34;5030581;28;19936;-80
2023/05/05 11:56:07;;;;;;;;;;;;;;;16.68;46.57;101888.22;5039141;28;19937;-79
2023/05/05 11:58:32;;;;;;;;;;;;;;;16.78;45.78;101885.44;5029222;28;20827;-77
2023/05/05 12:00:58;;;;;;;;;;;;;;;16.84;46.01;101892.44;5031970;28;20021;-79
2023/05/05 12:03:23;;;;;;;;;;;;;;;17.00;45.91;101893.09;5037753;28;19944;-78
2023/05/05 12:05:53;;;;;;;;;;;;;;;16.67;45.66;101883.91;5034002;28;19964;-79
2023/05/05 12:08:18;;;;;;;;;;;;;;;16.68;45.95;101882.81;5042763;28;19995;-77
2023/05/05 12:10:43;;;;;;;;;;;;;;;16.67;46.11;101884.72;5028300;28;20019;-79
2023/05/05 12:13:19;;;;;;;;;;;;;;;16.96;45.23;101873.94;5041975;28;20046;-79
2023/05/05 12:15:44;;;;;;;;;;;;;;;17.00;45.95;101872.28;5031169;28;19932;-79
2023/05/05 12:18:19;;;;;;;;;;;;;;;16.60;47.73;101876.91;5033872;28;19964;-78
2023/05/05 12:20:45;;;;;;;;;;;;;;;16.34;46.68;101876.28;5032124;28;19996;-79
2023/05/05 12:23:11;;;;;;;;;;;;;;;16.45;47.10;101874.31;5028116;28;19948;-78
2023/05/05 12:25:38;;;;;;;;;;;;;;;16.19;47.30;101870.16;5042010;28;19951;-77
2023/05/05 12:28:04;;;;;;;;;;;;;;;15.92;47.89;101860.59;5037091;28;19969;-76
2023/05/05 12:30:30;;;;;;;;;;;;;;;15.81;47.81;101854.44;5040763;28;19934;-77
2023/05/05 12:32:59;;;;;;;;;;;;;;;15.82;48.57;101849.81;5027870;28;20027;-77
2023/05/05 12:35:25;;;;;;;;;;;;;;;15.78;48.95;101857.69;5028864;28;19939;-77
2023/05/05 12:37:50;;;;;;;;;;;;;;;15.79;48.90;101861.19;5048349;28;19956;-78
2023/05/05 12:40:34;;;;;;;;;;;;;;;15.64;49.65;101864.75;5030341;28;19956;-78
2023/05/05 12:43:00;;;;;;;;;;;;;;;15.43;51.53;101866.69;5034116;28;20034;-77